Atar, Mauritania
Current Conditions -  °F | °C
As of 9:00 AM on Friday 31 Oct 2014 (Local Time) from GQPA Reporting Station
Clear Clear  
Wind Chill: 79°   Ceiling: Unl
Heat Index: 79°   Visibility: 5mi
Dew Point: 48°   Wind: 5mph
Humidity: 34%   Direction: 360°N
Pressure: 30"   Gusts: NA
Location:  20.51°N, 13.05°W
Report Text: GQPA 310900Z 36004KT 8000 NSC 26/09 Q1016
Loading
Personal Weather Stations






























Interactive Weather Map
Tropical Storm Tracking
New forecast layout! Learn more

10-Day Weather Forecast

Advertisements
Track Severe Weather on mobile